createdAt,value
2019-05-12T00:00:50.036Z,98357.61
2019-05-12T00:03:19.896Z,98357.61
2019-05-12T00:05:49.622Z,98366.83
2019-05-12T00:08:19.289Z,98362.19
2019-05-12T00:10:49.075Z,98366.17
2019-05-12T00:13:19.344Z,98365.55
2019-05-12T00:15:49.049Z,98371.07
2019-05-12T00:18:18.814Z,98371.07
2019-05-12T00:20:49.133Z,98374.43
2019-05-12T00:23:26.686Z,98374.11
2019-05-12T00:25:50.327Z,98374.11
2019-05-12T00:28:20.605Z,98382.91
2019-05-12T00:30:51.624Z,98388.74
2019-05-12T00:33:21.282Z,98397.16
2019-05-12T00:35:50.849Z,98397.47
2019-05-12T00:38:21.912Z,98397.47
2019-05-12T00:40:51.738Z,98406.03
2019-05-12T00:43:21.436Z,98412.92
2019-05-12T00:45:50.969Z,98412.92
2019-05-12T00:48:20.973Z,98421.57
2019-05-12T00:50:51.091Z,98423.13
2019-05-12T00:53:20.694Z,98423.13
2019-05-12T00:55:50.700Z,98435.90
2019-05-12T00:58:20.305Z,98442.00
2019-05-12T01:00:50.622Z,98441.33
2019-05-12T01:03:20.393Z,98440.80
2019-05-12T01:05:50.303Z,98442.40
2019-05-12T01:08:20.593Z,98449.03
2019-05-12T01:10:50.399Z,98449.03
2019-05-12T01:13:20.037Z,98447.47
2019-05-12T01:15:50.015Z,98447.47
2019-05-12T01:18:20.316Z,98450.95
2019-05-12T01:20:49.889Z,98461.70
2019-05-12T01:23:23.402Z,98465.34
2019-05-12T01:25:52.851Z,98468.23
2019-05-12T01:28:22.450Z,98470.42
2019-05-12T01:30:53.997Z,98470.42
2019-05-12T01:33:23.686Z,98478.77
2019-05-12T01:35:53.322Z,98478.77
2019-05-12T01:38:22.887Z,98481.36
2019-05-12T01:40:52.618Z,98481.36
2019-05-12T01:43:22.233Z,98482.48
2019-05-12T01:45:51.976Z,98492.39
2019-05-12T01:48:21.744Z,98488.66
2019-05-12T01:50:51.448Z,98488.66
2019-05-12T01:53:21.488Z,98497.05
2019-05-12T01:55:51.378Z,98508.61
2019-05-12T01:58:21.205Z,98508.61
2019-05-12T02:00:50.783Z,98509.52
2019-05-12T02:03:20.568Z,98514.37
2019-05-12T02:05:53.281Z,98514.37
2019-05-12T02:08:30.550Z,98516.10
2019-05-12T02:11:18.470Z,98520.44
2019-05-12T02:13:48.767Z,98525.61
2019-05-12T02:16:18.983Z,98525.61
2019-05-12T02:18:49.242Z,98539.69
2019-05-12T02:21:19.613Z,98542.52
2019-05-12T02:23:49.533Z,98547.59
2019-05-12T02:26:19.752Z,98547.38
2019-05-12T02:28:49.325Z,98542.59
2019-05-12T02:31:20.617Z,98552.33
2019-05-12T02:33:50.218Z,98552.33
2019-05-12T02:36:19.836Z,98551.40
2019-05-12T02:38:49.591Z,98560.97
2019-05-12T02:41:19.189Z,98565.69
2019-05-12T02:43:49.387Z,98570.13
2019-05-12T02:46:19.137Z,98570.13
2019-05-12T02:48:49.717Z,98579.25
2019-05-12T02:51:19.469Z,98577.46
2019-05-12T02:53:49.357Z,98577.46
2019-05-12T02:56:19.980Z,98579.19
2019-05-12T02:58:49.634Z,98584.89
2019-05-12T03:01:19.331Z,98584.89
2019-05-12T03:03:49.092Z,98578.55
2019-05-12T03:06:19.104Z,98569.60
2019-05-12T03:08:48.697Z,98582.36
2019-05-12T03:11:18.849Z,98582.36
2019-05-12T03:13:48.531Z,98590.19
2019-05-12T03:16:18.523Z,98597.16
2019-05-12T03:18:48.263Z,98596.30
2019-05-12T03:21:18.210Z,98596.30
2019-05-12T03:23:48.097Z,98594.23
2019-05-12T03:26:17.878Z,98594.23
2019-05-12T03:28:47.534Z,98604.07
2019-05-12T03:31:23.577Z,98602.91
2019-05-12T03:33:52.688Z,98609.61
2019-05-12T03:36:21.092Z,98616.23
2019-05-12T03:38:50.857Z,98616.23
2019-05-12T03:41:20.626Z,98625.50
2019-05-12T03:43:50.253Z,98636.73
2019-05-12T03:46:19.912Z,98643.80
2019-05-12T03:48:49.583Z,98644.75
2019-05-12T03:51:19.246Z,98649.51
2019-05-12T03:53:49.043Z,98652.16
2019-05-12T03:56:19.184Z,98652.16
2019-05-12T03:58:48.873Z,98655.52
2019-05-12T04:01:18.484Z,98653.50
2019-05-12T04:03:48.211Z,98650.86
2019-05-12T04:06:18.078Z,98655.27
2019-05-12T04:08:48.036Z,98654.95
2019-05-12T04:11:17.804Z,98664.48
2019-05-12T04:13:47.662Z,98675.70
2019-05-12T04:16:17.352Z,98683.19
2019-05-12T04:18:47.070Z,98683.19
2019-05-12T04:21:16.750Z,98680.65
2019-05-12T04:23:47.100Z,98680.65
2019-05-12T04:26:17.496Z,98690.98
2019-05-12T04:28:47.333Z,98695.14
2019-05-12T04:31:17.170Z,98697.92
2019-05-12T04:33:46.894Z,98699.17
2019-05-12T04:36:17.000Z,98699.17
2019-05-12T04:38:46.869Z,98720.92
2019-05-12T04:41:19.819Z,98720.92
2019-05-12T04:43:47.981Z,98733.98
2019-05-12T04:46:18.325Z,98733.98
2019-05-12T04:48:47.997Z,98735.09
2019-05-12T04:51:17.969Z,98737.48
2019-05-12T04:53:47.668Z,98738.95
2019-05-12T04:56:20.589Z,98738.95
2019-05-12T04:58:49.274Z,98737.63
2019-05-12T05:01:19.188Z,98737.63
2019-05-12T05:03:48.871Z,98745.13
2019-05-12T05:06:19.049Z,98757.41
2019-05-12T05:08:48.700Z,98759.73
2019-05-12T05:11:18.587Z,98774.00
2019-05-12T05:13:50.595Z,98779.83
2019-05-12T05:16:20.314Z,98779.83
2019-05-12T05:18:50.560Z,98788.20
2019-05-12T05:21:20.319Z,98791.16
2019-05-12T05:23:50.828Z,98794.02
2019-05-12T05:26:27.677Z,98799.00
2019-05-12T05:28:54.230Z,98808.56
2019-05-12T05:31:24.418Z,98808.56
2019-05-12T05:33:54.454Z,98813.27
2019-05-12T05:36:25.039Z,98829.02
2019-05-12T05:38:59.587Z,98829.02
2019-05-12T05:41:26.403Z,98828.92
2019-05-12T05:43:58.437Z,98841.09
2019-05-12T05:46:27.469Z,98837.61
2019-05-12T05:48:57.090Z,98838.42
2019-05-12T05:51:26.822Z,98843.11
2019-05-12T05:53:56.489Z,98843.11
2019-05-12T05:56:38.791Z,98850.69
2019-05-12T05:58:57.537Z,98850.69
2019-05-12T06:01:28.036Z,98856.70
2019-05-12T06:03:58.281Z,98856.70
2019-05-12T06:06:31.532Z,98855.70
2019-05-12T06:09:03.709Z,98859.16
2019-05-12T06:11:34.518Z,98856.02
2019-05-12T06:14:11.275Z,98857.48
2019-05-12T06:16:35.517Z,98860.14
2019-05-12T06:19:05.360Z,98862.86
2019-05-12T06:21:38.159Z,98862.45
2019-05-12T06:24:08.827Z,98871.48
2019-05-12T06:26:52.872Z,98870.19
2019-05-12T06:29:11.343Z,98867.93
2019-05-12T06:31:44.151Z,98867.33
2019-05-12T06:34:20.564Z,98867.33
2019-05-12T06:36:45.691Z,98879.25
2019-05-12T06:39:19.360Z,98879.25
2019-05-12T06:41:46.830Z,98884.47
2019-05-12T06:44:19.404Z,98885.52
2019-05-12T06:46:47.836Z,98890.19
2019-05-12T06:49:17.815Z,98890.19
2019-05-12T06:51:48.087Z,98889.50
2019-05-12T06:54:19.207Z,98889.50
2019-05-12T06:56:50.008Z,98886.41
2019-05-12T06:59:20.572Z,98893.73
2019-05-12T07:01:56.022Z,98900.78
2019-05-12T07:04:23.949Z,98909.97
2019-05-12T07:06:56.068Z,98909.97
2019-05-12T07:09:28.293Z,98919.53
2019-05-12T07:12:02.965Z,98921.41
2019-05-12T07:14:27.935Z,98921.41
2019-05-12T07:17:05.698Z,98919.23
2019-05-12T07:19:34.030Z,98923.55
2019-05-12T07:22:18.861Z,98923.55
2019-05-12T07:27:04.295Z,98941.86
2019-05-12T07:29:34.254Z,98941.86
2019-05-12T07:32:07.102Z,98945.29
2019-05-12T07:34:35.692Z,98947.52
2019-05-12T07:37:05.439Z,98942.22
2019-05-12T07:39:37.082Z,98945.97
2019-05-12T07:42:06.900Z,98946.86
2019-05-12T07:44:40.307Z,98946.86
2019-05-12T07:47:08.782Z,98936.83
2019-05-12T07:49:38.817Z,98936.83
2019-05-12T07:52:08.932Z,98936.84
2019-05-12T07:54:39.538Z,98937.94
2019-05-12T07:57:12.476Z,98944.27
2019-05-12T07:59:41.177Z,98944.27
2019-05-12T08:02:10.984Z,98947.84
2019-05-12T08:04:41.208Z,98950.98
2019-05-12T08:07:14.297Z,98951.59
2019-05-12T08:09:44.086Z,98945.33
2019-05-12T08:12:19.649Z,98957.12
2019-05-12T08:14:46.243Z,98960.98
2019-05-12T08:17:19.256Z,98960.98
2019-05-12T08:19:47.660Z,98952.51
2019-05-12T08:22:19.023Z,98948.77
2019-05-12T08:24:49.412Z,98943.47
2019-05-12T08:27:19.702Z,98943.47
2019-05-12T08:29:52.425Z,98959.83
2019-05-12T08:32:20.818Z,98953.00
2019-05-12T08:34:50.678Z,98964.98
2019-05-12T08:37:20.574Z,98969.30
2019-05-12T08:39:53.408Z,98974.09
2019-05-12T08:42:23.967Z,98983.94
2019-05-12T08:44:54.287Z,98983.08
2019-05-12T08:47:24.059Z,98985.16
2019-05-12T08:49:58.810Z,98979.11
2019-05-12T08:52:30.612Z,98979.11
2019-05-12T08:55:00.041Z,98984.84
2019-05-12T08:57:32.581Z,98975.27
2019-05-12T09:00:03.447Z,98976.22
2019-05-12T09:02:34.409Z,98976.22
2019-05-12T09:05:04.838Z,98981.85
2019-05-12T09:07:35.946Z,98970.88
2019-05-12T09:10:06.252Z,98982.59
2019-05-12T09:12:36.054Z,98993.59
2019-05-12T09:15:08.436Z,98993.59
2019-05-12T09:17:49.104Z,98990.85
2019-05-12T09:20:09.593Z,98990.85
2019-05-12T09:22:39.150Z,98991.48
2019-05-12T09:25:08.892Z,98992.14
2019-05-12T09:27:39.573Z,98993.16
2019-05-12T09:30:14.405Z,98993.16
2019-05-12T09:32:50.298Z,98995.01
2019-05-12T09:35:21.030Z,98997.55
2019-05-12T09:37:53.388Z,98997.55
2019-05-12T09:40:24.772Z,98999.44
2019-05-12T09:42:54.821Z,99009.54
2019-05-12T09:45:24.478Z,98999.83
2019-05-12T09:47:58.913Z,99009.72
2019-05-12T09:50:28.129Z,99009.72
2019-05-12T09:53:00.702Z,99004.57
2019-05-12T09:55:29.370Z,99006.12
2019-05-12T09:57:59.505Z,99008.22
2019-05-12T10:00:35.670Z,98998.20
2019-05-12T10:03:01.510Z,98997.81
2019-05-12T10:05:39.227Z,99011.31
2019-05-12T10:08:04.485Z,99007.83
2019-05-12T10:10:40.075Z,99007.83
2019-05-12T10:13:06.015Z,99022.16
2019-05-12T10:15:35.997Z,99014.94
2019-05-12T10:18:10.857Z,99026.31
2019-05-12T10:20:39.933Z,99020.66
2019-05-12T10:23:10.206Z,99016.28
2019-05-12T11:54:16.753Z,99047.44
2019-05-12T12:59:14.657Z,99086.06
2019-05-12T13:01:48.397Z,99088.91
2019-05-12T13:04:19.037Z,99088.91
2019-05-12T13:06:48.776Z,99086.53
2019-05-12T13:09:24.524Z,99088.39
2019-05-12T13:11:50.691Z,99091.16
2019-05-12T13:14:20.708Z,99091.16
2019-05-12T13:16:54.650Z,99097.29
2019-05-12T13:19:25.612Z,99097.32
2019-05-12T13:21:55.797Z,99097.32
2019-05-12T13:24:28.790Z,99107.13
2019-05-12T13:26:59.474Z,99098.53
2019-05-12T13:29:38.311Z,99098.53
2019-05-12T13:32:03.366Z,99101.73
2019-05-12T13:34:36.590Z,99101.73
2019-05-12T13:37:09.483Z,99108.94
2019-05-12T13:39:54.676Z,99110.41
2019-05-12T13:42:13.631Z,99110.41
2019-05-12T13:44:45.747Z,99104.73
2019-05-12T13:47:20.265Z,99111.83
2019-05-12T13:49:55.273Z,99111.83
2019-05-12T13:52:30.028Z,99101.02
2019-05-12T13:55:00.108Z,99103.77
2019-05-12T13:57:34.616Z,99103.77
2019-05-12T14:00:10.997Z,99112.26
2019-05-12T14:02:43.988Z,99101.30
2019-05-12T14:05:15.002Z,99093.31
2019-05-12T14:07:50.125Z,99108.68
2019-05-12T14:10:20.761Z,99110.38
2019-05-12T14:12:51.432Z,99110.38
2019-05-12T14:15:24.895Z,99121.16
2019-05-12T14:17:59.144Z,99120.44
2019-05-12T14:20:34.450Z,99120.44
2019-05-12T14:23:05.621Z,99113.64
2019-05-12T14:25:43.656Z,99113.64
2019-05-12T14:28:20.040Z,99119.00
2019-05-12T14:30:54.360Z,99110.48
2019-05-12T14:33:29.843Z,99110.48
2019-05-12T14:35:59.979Z,99110.84
2019-05-12T14:38:34.470Z,99107.16
2019-05-12T14:41:10.355Z,99116.50
2019-05-12T14:43:38.670Z,99116.50
2019-05-12T14:46:10.426Z,99118.95
2019-05-12T14:48:45.390Z,99122.02
2019-05-12T14:51:15.279Z,99116.84
2019-05-12T14:53:48.085Z,99119.36
2019-05-12T14:56:23.441Z,99119.36
2019-05-12T14:58:58.966Z,99123.81
2019-05-12T15:01:38.501Z,99124.19
2019-05-12T15:03:59.167Z,99124.19
2019-05-12T15:06:29.747Z,99134.93
2019-05-12T15:08:59.428Z,99134.93
2019-05-12T15:11:34.131Z,99131.55
2019-05-12T15:14:08.514Z,99134.63
2019-05-12T15:16:44.214Z,99134.63
2019-05-12T15:19:13.958Z,99133.16
2019-05-12T15:21:47.892Z,99130.19
2019-05-12T15:24:19.091Z,99123.64
2019-05-12T15:26:50.404Z,99123.64
2019-05-12T15:29:20.313Z,99134.14
2019-05-12T15:31:55.818Z,99137.84
2019-05-12T15:34:23.794Z,99139.23
2019-05-12T15:36:56.501Z,99138.67
2019-05-12T15:39:25.863Z,99138.67
2019-05-12T15:41:58.703Z,99144.04
2019-05-12T15:44:31.361Z,99131.44
2019-05-12T15:47:03.936Z,99131.44
2019-05-12T15:49:34.199Z,99124.37
2019-05-12T15:52:04.228Z,99128.58
2019-05-12T15:54:41.758Z,99137.80
2019-05-12T15:57:10.562Z,99141.86
2019-05-12T15:59:40.279Z,99141.86
2019-05-12T16:02:16.465Z,99150.62
2019-05-12T16:04:47.818Z,99158.33
2019-05-12T16:07:17.002Z,99153.39
2019-05-12T16:09:49.344Z,99153.39
2019-05-12T16:12:24.390Z,99157.68
2019-05-12T16:14:54.097Z,99160.05
2019-05-12T16:17:27.114Z,99166.59
2019-05-12T16:19:56.348Z,99170.19
2019-05-12T16:22:30.644Z,99168.18
2019-05-12T16:25:04.331Z,99168.18
2019-05-12T16:27:37.351Z,99172.73
2019-05-12T16:30:10.316Z,99172.73
2019-05-12T16:32:47.889Z,99167.97
2019-05-12T16:35:20.246Z,99178.08
2019-05-12T16:37:50.081Z,99178.08
2019-05-12T16:40:23.794Z,99175.71
2019-05-12T16:42:59.284Z,99187.32
2019-05-12T16:45:25.207Z,99184.83
2019-05-12T16:47:59.301Z,99183.67
2019-05-12T16:50:28.074Z,99183.67
2019-05-12T16:52:58.837Z,99189.36
2019-05-12T16:55:30.166Z,99189.36
2019-05-12T16:58:04.302Z,99188.00
2019-05-12T17:00:39.730Z,99195.42
2019-05-12T17:03:06.534Z,99195.42
2019-05-12T17:05:38.101Z,99199.70
2019-05-12T17:08:08.329Z,99198.59
2019-05-12T17:10:38.778Z,99198.59
2019-05-12T17:13:13.711Z,99204.75
2019-05-12T17:15:40.658Z,99200.34
2019-05-12T17:18:13.411Z,99197.36
2019-05-12T17:20:47.121Z,99201.88
2019-05-12T17:23:16.578Z,99201.88
2019-05-12T17:25:48.458Z,99201.50
2019-05-12T17:28:18.469Z,99201.50
2019-05-12T17:30:49.886Z,99211.39
2019-05-12T17:33:25.082Z,99210.73
2019-05-12T17:35:55.342Z,99210.73
2019-05-12T17:38:25.724Z,99222.95
2019-05-12T17:41:00.732Z,99222.53
2019-05-12T17:43:28.940Z,99222.53
2019-05-12T17:46:01.308Z,99226.33
2019-05-12T17:48:31.215Z,99228.63
2019-05-12T17:51:04.770Z,99224.57
2019-05-12T17:53:37.818Z,99226.98
2019-05-12T17:56:10.429Z,99226.98
2019-05-12T17:58:44.546Z,99224.30
2019-05-12T18:01:14.191Z,99220.27
2019-05-12T18:03:48.771Z,99220.27
2019-05-12T18:06:20.316Z,99224.77
2019-05-12T18:08:53.268Z,99221.62
2019-05-12T18:11:29.994Z,99226.08
2019-05-12T18:14:04.002Z,99235.37
2019-05-12T18:16:34.063Z,99231.52
2019-05-12T18:19:09.010Z,99231.52
2019-05-12T18:21:37.665Z,99235.64
2019-05-12T18:24:11.095Z,99236.89
2019-05-12T18:26:40.138Z,99237.27
2019-05-12T18:29:17.194Z,99241.47
2019-05-12T18:31:48.324Z,99246.66
2019-05-12T18:34:21.942Z,99246.66
2019-05-12T18:36:57.912Z,99252.33
2019-05-12T18:39:27.016Z,99258.23
2019-05-12T18:42:14.106Z,99258.23
2019-05-12T18:44:45.852Z,99251.70
2019-05-12T18:47:17.184Z,99248.62
2019-05-12T18:49:53.866Z,99248.62
2019-05-12T18:52:39.403Z,99254.37
2019-05-12T18:55:05.181Z,99261.61
2019-05-12T18:58:04.174Z,99261.61
2019-05-12T19:00:34.577Z,99268.17
2019-05-12T19:03:14.182Z,99268.17
2019-05-12T19:05:47.863Z,99271.59
2019-05-12T19:08:20.308Z,99271.07
2019-05-12T19:10:53.755Z,99277.07
2019-05-12T19:13:23.834Z,99276.20
2019-05-12T19:16:02.425Z,99276.20
2019-05-12T19:18:32.501Z,99278.14
2019-05-12T19:21:04.709Z,99286.02
2019-05-12T19:23:37.320Z,99292.61
2019-05-12T19:26:16.183Z,99292.61
2019-05-12T19:28:55.899Z,99300.67
2019-05-12T19:31:24.689Z,99300.33
2019-05-12T19:34:14.947Z,99310.19
2019-05-12T19:36:35.936Z,99310.19
2019-05-12T19:39:08.338Z,99308.79
2019-05-12T19:42:04.084Z,99319.42
2019-05-12T19:44:38.434Z,99314.08
2019-05-12T19:47:13.629Z,99322.04
2019-05-12T19:49:50.100Z,99322.04
2019-05-12T19:52:15.154Z,99320.02
2019-05-12T19:54:48.567Z,99322.91
2019-05-12T19:57:21.738Z,99325.19
2019-05-12T19:59:52.461Z,99333.21
2019-05-12T20:02:23.677Z,99333.21
2019-05-12T20:04:56.579Z,99331.33
2019-05-12T20:07:29.092Z,99328.41
2019-05-12T20:10:04.582Z,99328.41
2019-05-12T20:12:35.890Z,99335.41
2019-05-12T20:15:06.227Z,99337.29
2019-05-12T20:17:36.326Z,99336.53
2019-05-12T20:20:06.124Z,99336.53
2019-05-12T20:22:41.089Z,99344.92
2019-05-12T20:25:14.640Z,99349.38
2019-05-12T20:27:44.881Z,99349.38
2019-05-12T20:30:20.420Z,99344.91
2019-05-12T20:32:47.211Z,99357.80
2019-05-12T20:35:21.608Z,99357.80
2019-05-12T20:37:54.651Z,99353.58
2019-05-12T20:40:24.517Z,99367.73
2019-05-12T20:43:07.830Z,99360.55
2019-05-12T20:45:33.110Z,99356.25
2019-05-12T20:47:59.974Z,99365.86
2019-05-12T20:50:38.870Z,99368.77
2019-05-12T20:53:09.881Z,99370.03
2019-05-12T20:55:44.334Z,99370.03
2019-05-12T20:58:14.545Z,99375.98
2019-05-12T21:00:50.147Z,99375.98
2019-05-12T21:03:16.703Z,99382.21
2019-05-12T21:05:50.834Z,99386.92
2019-05-12T21:08:20.433Z,99386.92
2019-05-12T21:10:51.107Z,99393.77
2019-05-12T21:13:27.269Z,99396.23
2019-05-12T21:15:53.922Z,99404.71
2019-05-12T21:18:24.516Z,99404.71
2019-05-12T21:20:54.975Z,99400.57
2019-05-12T21:23:25.992Z,99404.27
2019-05-12T21:25:59.336Z,99398.37
2019-05-12T21:28:30.489Z,99402.25
2019-05-12T21:31:03.517Z,99402.25
2019-05-12T21:33:39.553Z,99410.00
2019-05-12T21:36:05.424Z,99408.86
2019-05-12T21:38:35.633Z,99408.86
2019-05-12T21:41:07.625Z,99416.17
2019-05-12T21:43:38.021Z,99417.23
2019-05-12T21:46:12.492Z,99417.23
2019-05-12T21:48:39.805Z,99417.52
2019-05-12T21:51:16.821Z,99426.00
2019-05-12T21:53:43.561Z,99425.78
2019-05-12T21:56:24.922Z,99425.78
2019-05-12T21:58:58.319Z,99422.61
2019-05-12T22:01:28.636Z,99422.61
2019-05-12T22:04:14.732Z,99421.41
2019-05-12T22:06:56.886Z,99427.94
2019-05-12T22:09:24.058Z,99432.33
2019-05-12T22:11:56.455Z,99432.05
2019-05-12T22:14:30.366Z,99435.77
2019-05-12T22:17:00.465Z,99435.77
2019-05-12T22:19:37.992Z,99444.96
2019-05-12T22:22:06.748Z,99441.12
2019-05-12T22:24:38.954Z,99435.77
2019-05-12T22:27:16.236Z,99447.81
2019-05-12T22:29:43.676Z,99447.81
2019-05-12T22:32:19.008Z,99449.98
2019-05-12T22:34:46.025Z,99450.53
2019-05-12T22:37:15.891Z,99450.53
2019-05-12T22:39:46.224Z,99461.13
2019-05-12T22:42:19.836Z,99463.10
2019-05-12T22:44:55.302Z,99467.58
2019-05-12T22:47:19.615Z,99465.17
2019-05-12T22:49:52.082Z,99465.17
2019-05-12T22:52:20.977Z,99473.77
2019-05-12T22:54:51.226Z,99473.26
2019-05-12T22:57:23.964Z,99469.54
2019-05-12T22:59:57.244Z,99469.54
2019-05-12T23:02:29.830Z,99471.38
2019-05-12T23:04:59.063Z,99467.38
2019-05-12T23:07:29.940Z,99467.38
2019-05-12T23:10:05.954Z,99470.81
2019-05-12T23:12:34.367Z,99472.41
2019-05-12T23:15:07.194Z,99472.41
2019-05-12T23:17:39.054Z,99473.58
2019-05-12T23:20:08.719Z,99470.09
2019-05-12T23:22:39.165Z,99479.13
2019-05-12T23:25:11.369Z,99479.13
2019-05-12T23:27:44.041Z,99470.06
2019-05-12T23:30:15.830Z,99468.13
2019-05-12T23:32:51.382Z,99478.19
2019-05-12T23:35:16.724Z,99474.52
2019-05-12T23:37:48.213Z,99474.49
2019-05-12T23:40:18.501Z,99477.46
2019-05-12T23:42:48.265Z,99479.12
2019-05-12T23:45:18.398Z,99476.29
2019-05-12T23:47:49.057Z,99476.88
2019-05-12T23:50:18.995Z,99483.19
2019-05-12T23:52:50.123Z,99478.28
2019-05-12T23:55:20.093Z,99478.28
2019-05-12T23:57:53.677Z,99476.70
